Pavlodar, Kazakhstan

1:02 PM +06 on July 27, 2016 (GMT +0600)
Pavlodar | | Change Station

Elev 410 ft 52.19 °N, 77.07 °E | Updated 32 minutes ago

Haze
Haze
72 °F
Feels Like 72 °F
N
9
Wind Variable Wind from ENE

Today
High -- | Low -- °F
--% Chance of Precip.
Yesterday
High -- | Low -- °F
Precip. -- in
Pressure 29.77 in
Visibility -9999.0 miles
Clouds Mostly Cloudy 3300 ft
Overcast 10000 ft
Dew Point 61 °F
Humidity 69%
Rainfall 0.00 in
Snow Depth Not available.
5:05 AM 8:50 PM
Last Quarter, 46% visible
METAR UASP 270630Z 07004MPS 030V100 4600 HZ BKN033CB OVC100 22/16 Q1008 R03/0///70 TEMPO 2100 BR FU BKN005 RMK QFE746/0995
Pressure 29.77 in
Visibility -9999.0 miles
Clouds Mostly Cloudy 3300 ft
Overcast 10000 ft
Dew Point 61 °F
Humidity 69%
Rainfall 0.00 in
Snow Depth Not available.
5:05 AM 8:50 PM
Last Quarter, 46% visible
METAR UASP 270630Z 07004MPS 030V100 4600 HZ BKN033CB OVC100 22/16 Q1008 R03/0///70 TEMPO 2100 BR FU BKN005 RMK QFE746/0995

10-Day Weather Forecast

×

Almanac

Astronomy

Jul. 27, 2016 Rise Set
Actual Time
Civil Twilight
Nautical Twilight
Astronomical Twilight
Moon
Length of Visible Light
Length of Day
Tomorrow will be .
, % of the Moon is Illuminated

Today's Extremes

Country Highs Country Lows

Community

WunderPhotos

Upload Photos

1,927,818 photos uploaded!

WunderBlog® & News

Nearby

Air Quality

  Air Quality AQ Index Pollutant
Not available.

Snow Depth

Station Depth Elevation

Earthquake Activity

City Distance Mag. Time & Date
Minimum magnitude displayed is 2.5.

Coastal Water Temperatures

Place Temperature

Stations

Nearby Weather Stations

Station Location Temp. Windchill Dew Point Humidity Wind Precip. Elev Updated Type